Weather History for Stevens Point, WI

Change the Weather History Date:

Saturday, July 6, 2013

  Actual Average Record
Temperature  
Mean Temperature 74 °F -  
Max Temperature 85 °F 80 °F 97 °F (2012)
Min Temperature 62 °F 58 °F 44 °F (1983)
Cooling Degree Days 8    
Growing Degree Days 24 (Base 50)    
Moisture  
Dew Point 60 °F    
Average Humidity 61    
Maximum Humidity 86    
Minimum Humidity 40    
Precipitation  
Precipitation 0.00 in - - ()
Sea Level Pressure  
Sea Level Pressure 29.99 in    
Wind  
Wind Speed 9 mph (SSW)    
Max Wind Speed 13 mph    
Max Gust Speed 22 mph    
Visibility 10 miles    
Events      
Averages and records for this station are not official NWS values.
T = Trace of Precipitation, MM = Missing Value Source: NWS Daily Summary

Daily Weather History Graph

Daily Weather History Graph

Search for Another Location

Airport:

Trip Planner

Search our weather history database for the weather conditions in past years. The results will help you decide how hot, cold, wet, or windy it might be!

Date:

Astronomy

Jul. 06, 2013 Rise Set
Actual Time 5:20 AM CDT 8:45 PM CDT
Civil Twilight 4:44 AM CDT 9:21 PM CDT
Nautical Twilight 3:56 AM CDT 10:08 PM CDT
Astronomical Twilight 2:56 AM CDT 11:08 PM CDT
Moon 4:08 AM CDT (7/6) 7:24 PM CDT (7/6)
Length of Visible Light 16h 37m
Length of Day
15h 24m
Waning Crescent, 2% of the Moon is Illuminated
Jul 6
Waning Crescent
Jul 8
New
Jul 15
First Quarter
Jul 22
Full
Jul 29
Last Quarter

Hourly Weather History & Observations

Time (CDT) Temp. Heat Index Dew Point Humidity Pressure Visibility Wind Dir Wind Speed Gust Speed Precip Events Conditions
12:15 AM 69.3 °F - 60.4 °F 73% 30.00 in 10.0 mi South 9.2 mph - N/A   Clear
12:35 AM 68.7 °F - 60.8 °F 76% 30.01 in 10.0 mi South 8.1 mph - N/A   Clear
12:55 AM 68.4 °F - 60.8 °F 77% 30.01 in 10.0 mi South 9.2 mph - N/A   Clear
1:15 AM 68.2 °F - 60.8 °F 77% 30.01 in 10.0 mi South 9.2 mph - N/A   Clear
1:35 AM 68.2 °F - 60.4 °F 76% 30.01 in 10.0 mi South 10.4 mph - N/A   Clear
1:55 AM 67.8 °F - 60.4 °F 77% 30.01 in 10.0 mi SSW 9.2 mph - N/A   Clear
2:15 AM 67.5 °F - 60.1 °F 77% 30.01 in 10.0 mi South 9.2 mph - N/A   Clear
2:35 AM 67.3 °F - 59.9 °F 77% 30.01 in 10.0 mi SSW 9.2 mph - N/A   Clear
2:55 AM 66.4 °F - 59.9 °F 80% 30.01 in 10.0 mi SSW 8.1 mph - N/A   Clear
3:15 AM 66.0 °F - 59.9 °F 81% 30.01 in 10.0 mi SSW 8.1 mph - N/A   Clear
3:35 AM 65.5 °F - 59.4 °F 81% 30.01 in 10.0 mi SSW 8.1 mph - N/A   Clear
3:55 AM 65.3 °F - 59.2 °F 81% 30.01 in 10.0 mi SSW 8.1 mph - N/A   Clear
4:15 AM 64.0 °F - 59.0 °F 84% 30.01 in 10.0 mi South 6.9 mph - N/A   Clear
4:35 AM 63.5 °F - 59.0 °F 85% 30.01 in 10.0 mi SSW 5.8 mph - N/A   Clear
4:55 AM 64.2 °F - 59.0 °F 83% 30.01 in 10.0 mi SSW 6.9 mph - N/A   Clear
5:15 AM 63.5 °F - 58.8 °F 85% 30.02 in 10.0 mi South 6.9 mph - N/A   Clear
5:35 AM 62.8 °F - 58.5 °F 86% 30.02 in 10.0 mi South 5.8 mph - N/A   Clear
5:55 AM 63.9 °F - 58.6 °F 83% 30.02 in 10.0 mi South 6.9 mph - N/A   Clear
6:15 AM 65.3 °F - 58.8 °F 80% 30.01 in 10.0 mi South 8.1 mph - N/A   Clear
6:35 AM 66.6 °F - 59.0 °F 77% 30.01 in 10.0 mi South 8.1 mph - N/A   Clear
7:13 AM 69.8 °F - 59.0 °F 68% 30.01 in 10.0 mi SSW 9.2 mph - N/A   Clear
7:15 AM 68.9 °F - 59.4 °F 72% 30.01 in 10.0 mi SSW 9.2 mph - N/A   Clear
7:35 AM 69.8 °F - 59.7 °F 70% 30.01 in 10.0 mi SSW 8.1 mph - N/A   Clear
7:55 AM 70.7 °F - 60.3 °F 69% 30.01 in 10.0 mi SSW 6.9 mph - N/A   Clear
8:15 AM 71.6 °F - 60.4 °F 68% 30.02 in 10.0 mi SSW 9.2 mph - N/A   Clear
8:35 AM 72.5 °F - 60.8 °F 67% 30.01 in 10.0 mi SW 6.9 mph - N/A   Clear
8:55 AM 73.4 °F - 60.8 °F 65% 30.02 in 10.0 mi WSW 8.1 mph - N/A   Clear
9:15 AM 74.7 °F - 61.3 °F 63% 30.01 in 10.0 mi SSW 9.2 mph - N/A   Clear
9:35 AM 75.6 °F - 61.0 °F 60% 30.01 in 10.0 mi SSW 8.1 mph - N/A   Clear
9:55 AM 76.8 °F - 61.5 °F 59% 30.01 in 10.0 mi South 12.7 mph - N/A   Clear
10:15 AM 77.5 °F - 61.2 °F 57% 30.01 in 10.0 mi SSW 10.4 mph - N/A   Clear
10:35 AM 78.4 °F - 60.8 °F 55% 30.01 in 10.0 mi SW 9.2 mph 16.1 mph N/A   Clear
10:55 AM 80.1 °F 81.1 °F 61.7 °F 53% 30.01 in 10.0 mi South 9.2 mph - N/A   Clear
11:15 AM 80.2 °F 81.1 °F 60.4 °F 51% 30.01 in 10.0 mi SW 9.2 mph 17.3 mph N/A   Clear
11:35 AM 81.0 °F 81.8 °F 61.2 °F 51% 30.01 in 10.0 mi SSW 9.2 mph - N/A   Clear
11:55 AM 82.4 °F 82.9 °F 60.6 °F 48% 30.01 in 10.0 mi SW 11.5 mph 17.3 mph N/A   Clear
12:15 PM 82.4 °F 82.7 °F 60.3 °F 47% 30.00 in 10.0 mi WSW 8.1 mph - N/A   Clear
12:35 PM 83.3 °F 82.9 °F 58.3 °F 42% 30.00 in 10.0 mi SW 11.5 mph 19.6 mph N/A   Clear
12:55 PM 82.9 °F 82.8 °F 58.6 °F 44% 30.00 in 10.0 mi SW 11.5 mph 21.9 mph N/A   Clear
1:15 PM 83.3 °F 83.1 °F 58.6 °F 43% 29.99 in 10.0 mi SW 11.5 mph 17.3 mph N/A   Clear
1:35 PM 83.8 °F 83.6 °F 59.2 °F 43% 29.99 in 10.0 mi SSW 10.4 mph 19.6 mph N/A   Clear
1:55 PM 84.2 °F 83.7 °F 57.9 °F 41% 29.98 in 10.0 mi SSW 12.7 mph - N/A   Clear
2:15 PM 83.8 °F 84.0 °F 60.4 °F 45% 29.98 in 10.0 mi South 6.9 mph 10.4 mph N/A   Scattered Clouds
2:35 PM 83.8 °F 83.8 °F 60.1 °F 44% 29.98 in 10.0 mi South 6.9 mph - N/A   Mostly Cloudy
2:55 PM 84.6 °F 84.0 °F 58.5 °F 41% 29.98 in 10.0 mi South 6.9 mph - N/A   Scattered Clouds
3:15 PM 84.7 °F 84.4 °F 59.0 °F 42% 29.98 in 10.0 mi SSW 11.5 mph 16.1 mph N/A   Clear
3:35 PM 84.9 °F 84.2 °F 58.3 °F 40% 29.97 in 10.0 mi South 10.4 mph - N/A   Scattered Clouds
3:55 PM 85.5 °F 84.8 °F 58.5 °F 40% 29.97 in 10.0 mi SSW 10.4 mph 17.3 mph N/A   Scattered Clouds
4:15 PM 85.3 °F 84.8 °F 59.4 °F 41% 29.97 in 10.0 mi South 6.9 mph - N/A   Scattered Clouds
4:35 PM 84.6 °F 84.2 °F 59.0 °F 42% 29.96 in 10.0 mi South 10.4 mph - N/A   Clear
4:55 PM 85.3 °F 84.8 °F 59.4 °F 41% 29.96 in 10.0 mi South 9.2 mph - N/A   Clear
5:15 PM 84.9 °F 84.6 °F 59.5 °F 42% 29.96 in 10.0 mi South 12.7 mph - N/A   Clear
5:35 PM 84.2 °F 84.0 °F 59.2 °F 43% 29.95 in 10.0 mi South 10.4 mph 18.4 mph N/A   Scattered Clouds
5:55 PM 83.8 °F 83.6 °F 59.0 °F 43% 29.95 in 10.0 mi South 11.5 mph 16.1 mph N/A   Scattered Clouds
6:15 PM 83.7 °F 83.4 °F 59.2 °F 43% 29.94 in 10.0 mi SSW 12.7 mph 17.3 mph N/A   Clear
6:35 PM 83.1 °F 82.9 °F 58.6 °F 43% 29.94 in 10.0 mi SSW 11.5 mph - N/A   Clear
6:55 PM 82.8 °F 82.4 °F 57.7 °F 42% 29.94 in 10.0 mi SSW 8.1 mph - N/A   Clear
7:15 PM 81.7 °F 82.2 °F 60.4 °F 48% 29.94 in 10.0 mi SSW 11.5 mph - N/A   Clear
7:35 PM 80.8 °F 81.5 °F 60.6 °F 50% 29.94 in 10.0 mi South 8.1 mph - N/A   Clear
7:55 PM 79.7 °F - 61.0 °F 53% 29.95 in 10.0 mi South 8.1 mph - N/A   Clear
8:15 PM 78.6 °F - 61.7 °F 56% 29.95 in 10.0 mi South 6.9 mph - N/A   Clear
8:35 PM 77.5 °F - 61.3 °F 57% 29.95 in 10.0 mi South 8.1 mph - N/A   Clear
8:55 PM 76.3 °F - 61.3 °F 60% 29.95 in 10.0 mi South 6.9 mph - N/A   Clear
9:15 PM 74.8 °F - 61.3 °F 63% 29.96 in 10.0 mi South 4.6 mph - N/A   Clear
9:55 PM 72.7 °F - 61.5 °F 68% 29.98 in 10.0 mi SSW 4.6 mph - N/A   Clear
10:15 PM 71.6 °F - 61.3 °F 70% 29.98 in 10.0 mi South 4.6 mph - N/A   Clear
10:35 PM 71.8 °F - 61.7 °F 70% 29.98 in 10.0 mi South 5.8 mph - N/A   Clear
10:55 PM 71.2 °F - 61.3 °F 71% 29.98 in 10.0 mi South 6.9 mph - N/A   Clear
11:15 PM 71.2 °F - 61.3 °F 71% 29.98 in 10.0 mi South 5.8 mph - N/A   Clear
11:35 PM 70.7 °F - 61.2 °F 72% 29.98 in 10.0 mi South 5.8 mph - N/A   Clear
11:55 PM 70.3 °F - 61.2 °F 73% 29.97 in 10.0 mi SSW 6.9 mph - N/A   Clear